createdAt,value
2018-03-25T00:01:12.281Z,2.20
2018-03-25T00:03:39.839Z,2.10
2018-03-25T00:06:07.370Z,2.10
2018-03-25T00:08:35.771Z,2.10
2018-03-25T00:11:04.141Z,2.10
2018-03-25T00:13:32.456Z,2.00
2018-03-25T00:15:59.980Z,2.00
2018-03-25T00:18:27.595Z,2.00
2018-03-25T00:20:55.542Z,2.00
2018-03-25T00:23:23.879Z,1.90
2018-03-25T00:25:51.419Z,1.90
2018-03-25T00:28:18.972Z,1.90
2018-03-25T00:30:47.409Z,1.90
2018-03-25T00:33:15.017Z,1.80
2018-03-25T00:35:43.308Z,1.80
2018-03-25T00:38:10.852Z,1.80
2018-03-25T00:40:39.162Z,1.80
2018-03-25T00:43:06.702Z,1.70
2018-03-25T00:45:35.058Z,1.70
2018-03-25T00:48:02.849Z,1.70
2018-03-25T00:50:31.162Z,1.70
2018-03-25T00:52:58.708Z,1.60
2018-03-25T00:55:26.993Z,1.60
2018-03-25T00:57:55.570Z,1.60
2018-03-25T01:00:23.878Z,1.50
2018-03-25T01:02:51.410Z,1.50
2018-03-25T01:05:19.736Z,1.50
2018-03-25T01:07:47.336Z,1.50
2018-03-25T01:10:14.912Z,1.50
2018-03-25T01:12:42.456Z,1.50
2018-03-25T01:15:09.994Z,1.50
2018-03-25T01:17:37.589Z,1.50
2018-03-25T01:20:05.895Z,1.50
2018-03-25T01:22:33.469Z,1.50
2018-03-25T01:25:00.998Z,1.50
2018-03-25T01:27:28.541Z,1.50
2018-03-25T01:29:56.072Z,1.50
2018-03-25T01:32:24.385Z,1.40
2018-03-25T01:34:51.931Z,1.40
2018-03-25T01:37:20.239Z,1.30
2018-03-25T01:39:47.777Z,1.40
2018-03-25T01:42:16.130Z,1.30
2018-03-25T01:44:43.690Z,1.30
2018-03-25T01:47:11.542Z,1.20
2018-03-25T01:49:39.085Z,1.20
2018-03-25T01:52:06.632Z,1.20
2018-03-25T01:54:34.178Z,1.30
2018-03-25T01:57:01.717Z,1.30
2018-03-25T01:59:29.626Z,1.20
2018-03-25T02:01:57.182Z,1.20
2018-03-25T02:04:24.728Z,1.10
2018-03-25T02:06:52.262Z,1.10
2018-03-25T02:09:19.802Z,1.10
2018-03-25T02:11:47.389Z,1.10
2018-03-25T02:14:14.928Z,1.10
2018-03-25T02:16:42.465Z,1.00
2018-03-25T02:19:10.081Z,1.00
2018-03-25T02:21:37.700Z,1.00
2018-03-25T02:24:05.271Z,0.90
2018-03-25T02:26:32.801Z,0.90
2018-03-25T02:29:00.438Z,0.90
2018-03-25T02:31:27.978Z,0.80
2018-03-25T02:33:56.285Z,0.70
2018-03-25T02:36:23.842Z,0.70
2018-03-25T02:38:51.464Z,0.60
2018-03-25T02:41:18.993Z,0.60
2018-03-25T02:43:46.520Z,0.50
2018-03-25T02:46:14.821Z,0.40
2018-03-25T02:48:42.659Z,0.40
2018-03-25T02:51:10.199Z,0.40
2018-03-25T02:53:37.760Z,0.30
2018-03-25T02:56:05.349Z,0.30
2018-03-25T02:58:32.868Z,0.40
2018-03-25T03:01:00.443Z,0.40
2018-03-25T03:03:27.986Z,0.40
2018-03-25T03:05:55.797Z,0.40
2018-03-25T03:08:23.360Z,0.40
2018-03-25T03:10:50.971Z,0.40
2018-03-25T03:13:19.355Z,0.30
2018-03-25T03:15:47.671Z,0.30
2018-03-25T03:18:15.189Z,0.30
2018-03-25T03:20:42.747Z,0.30
2018-03-25T03:23:10.299Z,0.30
2018-03-25T03:25:38.223Z,0.30
2018-03-25T03:28:05.809Z,0.30
2018-03-25T03:30:33.351Z,0.30
2018-03-25T03:33:01.711Z,0.30
2018-03-25T03:35:29.217Z,0.20
2018-03-25T03:37:56.906Z,0.30
2018-03-25T03:40:24.442Z,0.20
2018-03-25T03:42:51.984Z,0.20
2018-03-25T03:45:20.289Z,0.20
2018-03-25T03:47:47.826Z,0.10
2018-03-25T03:50:15.373Z,0.20
2018-03-25T03:52:42.929Z,0.10
2018-03-25T03:55:10.480Z,0.10
2018-03-25T03:57:38.021Z,0.00
2018-03-25T04:00:05.643Z,0.00
2018-03-25T04:02:33.242Z,0.00
2018-03-25T04:05:00.775Z,0.00
2018-03-25T04:07:28.307Z,0.10
2018-03-25T04:09:55.838Z,0.10
2018-03-25T04:12:23.371Z,0.10
2018-03-25T04:14:50.927Z,0.10
2018-03-25T04:17:18.470Z,0.10
2018-03-25T04:19:46.019Z,0.10
2018-03-25T04:22:13.575Z,0.10
2018-03-25T04:24:41.116Z,0.10
2018-03-25T04:27:09.394Z,0.10
2018-03-25T04:29:37.698Z,0.10
2018-03-25T04:32:05.225Z,0.10
2018-03-25T04:34:32.785Z,0.10
2018-03-25T04:37:00.323Z,0.00
2018-03-25T04:39:27.870Z,0.00
2018-03-25T04:41:55.446Z,0.00
2018-03-25T04:44:22.989Z,0.00
2018-03-25T04:46:50.515Z,-0.10
2018-03-25T04:49:18.072Z,-0.20
2018-03-25T04:51:45.653Z,-0.30
2018-03-25T04:54:13.188Z,-0.30
2018-03-25T04:56:40.764Z,-0.40
2018-03-25T04:59:08.303Z,-0.40
2018-03-25T05:01:35.853Z,-0.40
2018-03-25T05:04:03.453Z,-0.40
2018-03-25T05:06:31.088Z,-0.50
2018-03-25T05:08:58.618Z,-0.50
2018-03-25T05:11:26.174Z,-0.40
2018-03-25T05:13:53.695Z,-0.40
2018-03-25T05:16:21.255Z,-0.40
2018-03-25T05:18:48.798Z,-0.30
2018-03-25T06:16:02.587Z,0.40
2018-03-25T06:18:39.340Z,0.30
2018-03-25T06:21:16.306Z,0.40
2018-03-25T06:23:54.233Z,0.50
2018-03-25T06:26:23.497Z,0.50
2018-03-25T06:29:01.047Z,0.60
2018-03-25T06:31:34.671Z,0.60
2018-03-25T06:34:10.436Z,0.80
2018-03-25T06:36:53.385Z,0.90
2018-03-25T06:39:22.738Z,0.90
2018-03-25T06:42:00.725Z,1.00
2018-03-25T06:44:31.129Z,1.00
2018-03-25T06:47:07.367Z,1.00
2018-03-25T06:49:48.416Z,1.10
2018-03-25T06:52:19.741Z,1.20
2018-03-25T06:54:55.771Z,1.20
2018-03-25T06:57:23.250Z,1.30
2018-03-25T07:00:02.908Z,1.30
2018-03-25T07:02:44.485Z,1.40
2018-03-25T07:05:27.390Z,1.50
2018-03-25T07:10:47.723Z,1.60
2018-03-25T07:16:03.094Z,1.80
2018-03-25T07:18:37.447Z,1.90
2018-03-25T07:21:17.695Z,2.00
2018-03-25T07:23:54.927Z,2.00
2018-03-25T07:26:23.099Z,2.10
2018-03-25T07:29:01.143Z,2.20
2018-03-25T07:31:28.606Z,2.30
2018-03-25T07:36:49.093Z,2.50
2018-03-25T07:39:20.402Z,2.60
2018-03-25T07:41:55.260Z,2.80
2018-03-25T07:44:46.349Z,2.80
2018-03-25T07:47:35.632Z,3.00
2018-03-25T07:50:17.821Z,3.20
2018-03-25T07:52:58.954Z,3.20
2018-03-25T07:55:34.336Z,3.30
2018-03-25T07:58:18.059Z,3.40
2018-03-25T08:00:53.158Z,3.60
2018-03-25T08:03:22.413Z,3.60
2018-03-25T08:06:00.419Z,3.80
2018-03-25T08:08:41.937Z,3.90
2018-03-25T08:11:18.658Z,4.00
2018-03-25T08:13:55.020Z,4.30
2018-03-25T08:16:26.462Z,4.40
2018-03-25T08:18:58.532Z,4.40
2018-03-25T08:21:28.303Z,4.60
2018-03-25T08:26:38.022Z,4.90
2018-03-25T08:29:06.274Z,5.10
2018-03-25T08:31:37.317Z,5.10
2018-03-25T08:34:19.245Z,5.20
2018-03-25T08:40:25.166Z,5.40
2018-03-25T08:48:43.647Z,5.80
2018-03-25T08:51:11.885Z,6.00
2018-03-25T08:53:51.106Z,5.90
2018-03-25T08:56:29.217Z,6.00
2018-03-25T08:58:57.150Z,6.10
2018-03-25T09:01:28.202Z,6.30
2018-03-25T09:04:10.048Z,6.30
2018-03-25T09:06:46.645Z,6.50
2018-03-25T09:09:20.430Z,6.60
2018-03-25T09:11:49.064Z,6.60
2018-03-25T09:14:16.550Z,6.70
2018-03-25T09:16:57.557Z,6.80
2018-03-25T09:22:38.772Z,7.00
2018-03-25T09:25:07.486Z,7.20
2018-03-25T09:27:57.573Z,7.10
2018-03-25T09:30:28.312Z,7.30
2018-03-25T09:39:01.988Z,7.50
2018-03-25T09:41:56.289Z,7.70
2018-03-25T10:00:05.153Z,8.20
2018-03-25T10:14:56.169Z,8.50
2018-03-25T10:20:58.202Z,8.60
2018-03-25T10:23:54.772Z,8.70
2018-03-25T10:32:30.989Z,9.10
2018-03-25T10:35:17.906Z,9.10
2018-03-25T10:43:48.186Z,9.20
2018-03-25T10:49:42.441Z,9.20
2018-03-25T10:52:31.549Z,9.50
2018-03-25T10:55:20.636Z,9.50
2018-03-25T10:58:19.982Z,9.70
2018-03-25T11:09:53.365Z,9.90
2018-03-25T11:12:22.796Z,9.90
2018-03-25T11:15:06.903Z,9.90
2018-03-25T11:17:42.056Z,10.10
2018-03-25T11:23:23.530Z,10.40
2018-03-25T11:26:11.807Z,10.30
2018-03-25T11:29:06.575Z,10.40
2018-03-25T11:31:36.016Z,10.50
2018-03-25T11:37:13.579Z,10.50
2018-03-25T11:39:48.228Z,10.50
2018-03-25T11:42:27.812Z,10.50
2018-03-25T11:44:55.858Z,10.50
2018-03-25T11:47:23.351Z,10.40
2018-03-25T11:49:56.420Z,10.40
2018-03-25T11:52:23.917Z,10.50
2018-03-25T11:55:11.461Z,10.60
2018-03-25T11:57:39.081Z,10.60
2018-03-25T12:00:06.553Z,10.70
2018-03-25T12:02:46.395Z,11.10
2018-03-25T12:05:30.095Z,11.10
2018-03-25T12:07:57.585Z,11.30
2018-03-25T12:10:25.050Z,11.40
2018-03-25T12:13:02.611Z,11.40
2018-03-25T12:15:44.971Z,11.40
2018-03-25T12:18:13.225Z,11.40
2018-03-25T12:23:23.277Z,11.40
2018-03-25T12:25:59.971Z,11.40
2018-03-25T12:28:43.018Z,11.50
2018-03-25T12:31:17.333Z,11.70
2018-03-25T12:33:56.336Z,11.70
2018-03-25T12:36:23.807Z,11.80
2018-03-25T12:38:59.903Z,11.80
2018-03-25T12:41:38.456Z,11.80
2018-03-25T12:44:19.036Z,11.80
2018-03-25T12:46:48.867Z,11.80
2018-03-25T12:49:16.359Z,11.70
2018-03-25T12:51:55.895Z,11.70
2018-03-25T12:54:23.391Z,11.80
2018-03-25T12:56:57.133Z,11.90
2018-03-25T12:59:24.616Z,12.00
2018-03-25T13:02:00.721Z,12.20
2018-03-25T13:04:38.411Z,12.20
2018-03-25T13:07:15.160Z,12.30
2018-03-25T13:09:55.904Z,12.40
2018-03-25T13:12:23.366Z,12.50
2018-03-25T13:15:03.237Z,12.60
2018-03-25T13:20:20.215Z,12.60
2018-03-25T13:22:47.677Z,12.60
2018-03-25T13:25:18.939Z,12.60
2018-03-25T13:27:46.404Z,12.50
2018-03-25T13:30:20.294Z,12.40
2018-03-25T13:32:57.539Z,12.40
2018-03-25T13:35:25.267Z,12.30
2018-03-25T13:37:58.130Z,12.20
2018-03-25T13:40:28.737Z,12.10
2018-03-25T13:43:03.712Z,12.10
2018-03-25T13:45:42.911Z,12.00
2018-03-25T13:48:12.789Z,12.00
2018-03-25T13:50:40.259Z,12.00
2018-03-25T13:53:08.492Z,12.00
2018-03-25T13:55:53.087Z,12.00
2018-03-25T13:58:20.542Z,11.90
2018-03-25T14:00:53.109Z,11.90
2018-03-25T14:03:20.578Z,11.90
2018-03-25T14:05:58.353Z,12.10
2018-03-25T14:11:42.372Z,12.20
2018-03-25T14:22:43.810Z,12.50
2018-03-25T14:25:20.644Z,12.50
2018-03-25T14:30:57.191Z,12.50
2018-03-25T14:33:33.548Z,12.50
2018-03-25T14:36:01.164Z,12.40
2018-03-25T14:38:46.663Z,12.40
2018-03-25T14:41:23.015Z,12.40
2018-03-25T14:43:50.836Z,12.30
2018-03-25T14:46:19.083Z,12.40
2018-03-25T14:49:00.390Z,12.40
2018-03-25T14:51:30.088Z,12.30
2018-03-25T14:53:57.596Z,12.30
2018-03-25T14:56:31.774Z,12.30
2018-03-25T14:59:18.186Z,12.40
2018-03-25T15:01:46.423Z,12.30
2018-03-25T15:04:13.931Z,12.30
2018-03-25T15:09:24.955Z,12.20
2018-03-25T15:11:59.271Z,12.20
2018-03-25T15:14:34.457Z,12.20
2018-03-25T15:17:16.636Z,12.10
2018-03-25T15:19:55.918Z,12.10
2018-03-25T15:22:24.150Z,12.20
2018-03-25T15:25:01.265Z,12.10
2018-03-25T15:27:30.274Z,12.20
2018-03-25T15:30:08.869Z,12.20
2018-03-25T15:32:46.009Z,12.20
2018-03-25T15:35:19.169Z,12.20
2018-03-25T15:37:55.533Z,12.20
2018-03-25T15:40:23.796Z,12.20
2018-03-25T15:42:59.424Z,12.20
2018-03-25T15:45:34.816Z,12.20
2018-03-25T15:48:20.356Z,12.20
2018-03-25T15:50:58.740Z,12.20
2018-03-25T15:53:33.549Z,12.20
2018-03-25T15:58:56.833Z,12.10
2018-03-25T16:01:24.324Z,12.00
2018-03-25T16:04:01.210Z,11.90
2018-03-25T16:06:39.929Z,12.00
2018-03-25T16:09:16.049Z,12.00
2018-03-25T16:11:56.833Z,11.80
2018-03-25T16:14:25.185Z,11.80
2018-03-25T16:17:01.683Z,11.80
2018-03-25T16:19:41.903Z,11.70
2018-03-25T16:22:19.512Z,11.70
2018-03-25T16:24:57.469Z,11.60
2018-03-25T16:27:24.939Z,11.70
2018-03-25T16:32:45.350Z,11.70
2018-03-25T16:35:17.607Z,11.60
2018-03-25T16:37:55.830Z,11.60
2018-03-25T16:40:23.300Z,11.60
2018-03-25T16:43:00.563Z,11.60
2018-03-25T16:45:40.944Z,11.50
2018-03-25T16:48:15.624Z,11.50
2018-03-25T16:50:54.658Z,11.50
2018-03-25T16:53:22.122Z,11.50
2018-03-25T16:56:00.966Z,11.40
2018-03-25T16:58:42.229Z,11.40
2018-03-25T17:01:15.998Z,11.30
2018-03-25T17:03:55.252Z,11.40
2018-03-25T17:06:22.981Z,11.30
2018-03-25T17:09:01.029Z,11.30
2018-03-25T17:11:42.932Z,11.30
2018-03-25T17:14:18.954Z,11.30
2018-03-25T17:16:57.682Z,11.20
2018-03-25T17:19:25.530Z,11.20
2018-03-25T17:22:05.558Z,11.20
2018-03-25T17:24:45.278Z,11.10
2018-03-25T17:27:26.091Z,11.10
2018-03-25T17:30:01.780Z,11.00
2018-03-25T17:32:41.520Z,11.00
2018-03-25T17:35:15.752Z,11.00
2018-03-25T17:37:56.285Z,10.90
2018-03-25T17:40:24.583Z,10.90
2018-03-25T17:45:56.982Z,10.90
2018-03-25T17:48:24.467Z,10.90
2018-03-25T17:50:51.965Z,10.80
2018-03-25T17:53:20.218Z,10.80
2018-03-25T17:56:00.677Z,10.80
2018-03-25T17:58:35.696Z,10.80
2018-03-25T18:01:19.875Z,10.70
2018-03-25T18:04:02.898Z,10.70
2018-03-25T18:09:50.899Z,10.60
2018-03-25T18:12:31.394Z,10.50
2018-03-25T18:20:56.290Z,10.40
2018-03-25T18:23:21.207Z,10.40
2018-03-25T18:25:59.489Z,10.30
2018-03-25T18:31:11.614Z,10.30
2018-03-25T18:33:51.047Z,10.30
2018-03-25T18:39:07.940Z,10.20
2018-03-25T18:41:43.787Z,10.20
2018-03-25T18:44:18.917Z,10.20
2018-03-25T18:46:56.735Z,10.10
2018-03-25T18:49:42.428Z,10.10
2018-03-25T18:52:10.518Z,10.10
2018-03-25T18:54:52.880Z,10.00
2018-03-25T18:57:23.338Z,10.00
2018-03-25T19:00:01.984Z,10.00
2018-03-25T19:02:38.011Z,10.00
2018-03-25T19:05:11.922Z,10.00
2018-03-25T19:07:58.299Z,10.00
2018-03-25T19:10:30.917Z,9.90
2018-03-25T19:12:58.518Z,9.90
2018-03-25T19:15:26.143Z,9.90
2018-03-25T19:21:08.392Z,9.80
2018-03-25T19:23:53.700Z,9.80
2018-03-25T19:29:41.707Z,9.80
2018-03-25T19:38:39.106Z,9.80
2018-03-25T19:41:36.350Z,9.70
2018-03-25T19:44:17.929Z,9.60
2018-03-25T19:46:52.043Z,9.50
2018-03-25T19:49:19.611Z,9.50
2018-03-25T19:54:47.605Z,9.40
2018-03-25T19:57:15.146Z,9.40
2018-03-25T20:00:01.722Z,9.70
2018-03-25T20:02:30.394Z,9.40
2018-03-25T20:04:57.998Z,9.40
2018-03-25T20:07:25.528Z,9.40
2018-03-25T20:09:53.046Z,9.30
2018-03-25T20:12:31.832Z,9.30
2018-03-25T20:15:08.817Z,9.30
2018-03-25T20:17:37.078Z,9.20
2018-03-25T20:20:04.594Z,9.20
2018-03-25T20:22:47.255Z,9.20
2018-03-25T20:25:26.873Z,9.20
2018-03-25T20:30:57.697Z,9.00
2018-03-25T20:33:32.441Z,8.90
2018-03-25T20:35:59.931Z,8.90
2018-03-25T20:38:36.152Z,8.80
2018-03-25T20:41:22.845Z,8.80
2018-03-25T20:43:57.365Z,8.60
2018-03-25T20:51:48.522Z,8.50
2018-03-25T20:54:26.573Z,8.40
2018-03-25T20:56:54.045Z,8.40
2018-03-25T20:59:34.257Z,8.30
2018-03-25T21:02:12.740Z,8.20
2018-03-25T21:04:53.018Z,8.20
2018-03-25T21:07:33.478Z,8.10
2018-03-25T21:10:01.457Z,8.00
2018-03-25T21:12:40.043Z,8.00
2018-03-25T21:15:07.529Z,7.90
2018-03-25T21:20:21.769Z,7.80
2018-03-25T21:22:49.248Z,7.70
2018-03-25T21:25:16.732Z,7.50
2018-03-25T21:27:44.213Z,7.50
2018-03-25T21:30:11.694Z,7.50
2018-03-25T21:32:55.679Z,7.40
2018-03-25T21:35:27.470Z,7.40
2018-03-25T21:37:54.949Z,7.40
2018-03-25T21:40:35.125Z,7.40
2018-03-25T21:45:53.985Z,7.30
2018-03-25T21:48:21.623Z,7.20
2018-03-25T21:51:07.377Z,7.20
2018-03-25T21:53:38.617Z,7.20
2018-03-25T21:56:06.091Z,7.20
2018-03-25T21:58:43.341Z,7.30
2018-03-25T22:01:24.787Z,7.30
2018-03-25T22:03:52.439Z,7.30
2018-03-25T22:06:20.046Z,7.20
2018-03-25T22:08:59.615Z,7.20
2018-03-25T22:17:41.472Z,7.30
2018-03-25T22:20:28.188Z,7.40
2018-03-25T22:22:58.312Z,7.30
2018-03-25T22:25:29.781Z,7.40
2018-03-25T22:28:08.891Z,7.40
2018-03-25T22:30:50.473Z,7.40
2018-03-25T22:33:18.942Z,7.50
2018-03-25T22:36:03.082Z,7.40
2018-03-25T22:38:41.958Z,7.40
2018-03-25T22:41:13.228Z,7.20
2018-03-25T22:43:56.113Z,7.30
2018-03-25T22:46:25.773Z,7.20
2018-03-25T22:49:01.354Z,7.10
2018-03-25T22:51:30.511Z,7.10
2018-03-25T22:53:59.128Z,7.00
2018-03-25T22:56:26.586Z,7.00
2018-03-25T22:58:57.824Z,7.00
2018-03-25T23:01:25.296Z,6.90
2018-03-25T23:03:55.824Z,6.90
2018-03-25T23:06:23.307Z,6.80
2018-03-25T23:08:57.481Z,6.80
2018-03-25T23:11:24.936Z,6.70
2018-03-25T23:13:56.427Z,6.60
2018-03-25T23:16:23.897Z,6.50
2018-03-25T23:18:57.300Z,6.40
2018-03-25T23:21:28.292Z,6.30
2018-03-25T23:24:04.328Z,5.90
2018-03-25T23:26:40.867Z,5.90
2018-03-25T23:29:10.930Z,5.80
2018-03-25T23:31:43.945Z,5.70
2018-03-25T23:34:21.574Z,5.40
2018-03-25T23:37:01.655Z,5.40
2018-03-25T23:39:35.052Z,5.30
2018-03-25T23:42:19.042Z,5.30
2018-03-25T23:44:46.513Z,5.20
2018-03-25T23:47:20.528Z,5.20
2018-03-25T23:50:00.406Z,5.10
2018-03-25T23:52:29.370Z,5.10
2018-03-25T23:55:04.084Z,5.10
2018-03-25T23:57:36.616Z,5.00
